Terminal Aerodrome Forecast
Issued by NWS

Home | Current Version | Previous Version | Text Only | Print | Product List | Glossary On
Versions: 1 2 3 4 5 6 7 8 9 10 11 12 13 14 15
477
FTUS45 KABQ 261740
TAFAEG
TAF
KAEG 261740Z 2618/2718 28006KT P6SM SCT070 SCT130
     FM262200 34010KT P6SM VCSH BKN080
     FM270000 12010KT P6SM VCTS BKN070CB OVC120
     FM270400 02006KT P6SM VCSH OVC100
     FM270900 34006KT P6SM BKN120
     FM271600 VRB06KT P6SM FEW070 SCT130=

USA.gov is the U.S. government's official web portal to all federal, state and local government web resources and services.